Time;durP1;ratioP1;P1;durP2;ratioP2;P2;SDS_P1;SDS_P2;PMS_P1;PMS_P2;Temp;Humidity;BMP_temperature;BMP_pressure;BME280_temperature;BME280_humidity;BME280_pressure;Samples;Min_cycle;Max_cycle;Signal;HPM_P1;HPM_P2
2022/10/17 00:00:45;;;;;;;1.60;1.00;;;16.90;98.20;;;;;;5114014;28;20551;-80
2022/10/17 00:03:12;;;;;;;1.53;1.00;;;16.90;98.20;;;;;;5085709;28;20467;-81
2022/10/17 00:05:40;;;;;;;1.57;1.00;;;16.90;98.20;;;;;;5113995;28;20463;-78
2022/10/17 00:08:08;;;;;;;1.60;1.00;;;16.90;98.20;;;;;;5107222;27;20484;-79
2022/10/17 00:10:35;;;;;;;1.53;0.90;;;17.00;98.20;;;;;;5113903;28;20487;-79
2022/10/17 00:13:02;;;;;;;1.60;1.00;;;17.00;98.20;;;;;;5100840;27;20491;-80
2022/10/17 00:15:30;;;;;;;1.57;1.00;;;17.00;98.20;;;;;;5113456;28;20478;-81
2022/10/17 00:17:58;;;;;;;1.53;0.90;;;17.00;98.20;;;;;;5100487;27;20486;-78
2022/10/17 00:20:25;;;;;;;1.60;1.00;;;17.00;98.20;;;;;;5114052;28;20487;-80
2022/10/17 00:22:52;;;;;;;1.53;1.00;;;17.00;98.20;;;;;;5103632;27;20476;-79
2022/10/17 00:25:20;;;;;;;1.53;1.00;;;17.00;98.20;;;;;;5096136;28;20529;-79
2022/10/17 00:27:46;;;;;;;1.50;0.97;;;17.00;98.20;;;;;;5098788;28;20559;-80
2022/10/17 00:30:15;;;;;;;1.50;0.90;;;17.00;98.20;;;;;;5112825;28;20544;-80
2022/10/17 00:32:44;;;;;;;1.60;1.00;;;17.00;98.20;;;;;;5104279;28;20483;-80
2022/10/17 00:35:11;;;;;;;1.60;1.00;;;17.00;98.20;;;;;;5114885;28;20983;-80
2022/10/17 00:37:38;;;;;;;1.50;0.90;;;17.00;98.20;;;;;;5102450;28;20575;-81
2022/10/17 00:40:07;;;;;;;1.53;1.00;;;17.00;98.20;;;;;;5113449;28;20455;-78
2022/10/17 00:42:37;;;;;;;1.50;1.00;;;17.00;98.20;;;;;;5102956;28;20496;-79
2022/10/17 00:45:15;;;;;;;1.57;0.93;;;17.00;98.20;;;;;;5106788;28;20468;-80
2022/10/17 00:47:47;;;;;;;1.60;1.10;;;17.00;98.20;;;;;;5096710;28;20474;-79
2022/10/17 00:50:15;;;;;;;1.50;1.00;;;17.00;98.20;;;;;;5113881;28;20934;-79
2022/10/17 00:52:44;;;;;;;1.60;1.00;;;17.00;98.20;;;;;;5108548;28;20513;-81
2022/10/17 00:55:15;;;;;;;1.53;1.00;;;17.00;98.20;;;;;;5103868;28;20452;-79
2022/10/17 00:57:43;;;;;;;1.57;1.00;;;17.00;98.20;;;;;;5100590;28;20499;-81
2022/10/17 01:00:11;;;;;;;1.53;0.90;;;17.00;98.20;;;;;;5110561;28;20857;-78
2022/10/17 01:02:38;;;;;;;1.60;1.00;;;17.00;98.20;;;;;;5100638;28;20570;-79
2022/10/17 01:05:08;;;;;;;1.53;1.00;;;16.90;98.20;;;;;;5113604;28;20471;-81
2022/10/17 01:07:36;;;;;;;1.50;1.00;;;16.90;98.20;;;;;;5102085;27;20488;-80
2022/10/17 01:10:05;;;;;;;3.97;2.40;;;16.90;98.20;;;;;;5114388;28;20523;-79
2022/10/17 01:12:39;;;;;;;1.60;1.10;;;16.90;98.20;;;;;;5100405;27;20480;-79
2022/10/17 01:15:13;;;;;;;1.57;1.00;;;16.90;98.20;;;;;;5112860;28;20474;-78
2022/10/17 01:17:51;;;;;;;1.57;0.90;;;16.90;98.20;;;;;;5101569;27;20498;-80
2022/10/17 01:20:44;;;;;;;1.60;1.00;;;16.80;98.20;;;;;;5112692;28;20477;-81
2022/10/17 01:23:27;;;;;;;1.60;0.90;;;16.80;98.20;;;;;;5105520;28;20555;-80
2022/10/17 01:25:59;;;;;;;1.57;1.00;;;16.80;98.20;;;;;;5086839;28;20506;-82
2022/10/17 01:28:44;;;;;;;1.60;1.00;;;16.80;98.20;;;;;;5110832;28;20460;-79
2022/10/17 01:31:15;;;;;;;1.53;0.90;;;16.80;98.20;;;;;;5097403;28;20470;-80
2022/10/17 01:33:53;;;;;;;1.73;1.60;;;16.80;98.20;;;;;;5114410;28;21107;-81
2022/10/17 01:36:39;;;;;;;1.60;1.00;;;16.80;98.20;;;;;;5105400;28;21006;-78
2022/10/17 01:39:15;;;;;;;1.57;0.90;;;16.90;98.20;;;;;;5116836;28;20467;-80
2022/10/17 01:41:46;;;;;;;1.60;1.00;;;16.90;98.20;;;;;;5105762;27;20920;-81
2022/10/17 01:44:17;;;;;;;1.53;1.00;;;16.90;98.20;;;;;;5114721;28;20574;-80
2022/10/17 01:46:49;;;;;;;1.57;0.90;;;17.00;98.20;;;;;;5107026;27;20477;-81
2022/10/17 01:49:20;;;;;;;1.53;0.90;;;16.90;98.20;;;;;;5098453;27;20907;-80
2022/10/17 01:51:52;;;;;;;1.50;0.90;;;16.90;98.20;;;;;;5091221;28;20476;-79
2022/10/17 01:54:23;;;;;;;1.57;0.90;;;16.90;98.20;;;;;;5109784;28;20521;-79
2022/10/17 01:56:59;;;;;;;1.53;1.00;;;16.90;98.20;;;;;;5105720;27;20487;-80
2022/10/17 02:14:13;;;;;;;1.53;0.90;;;16.70;98.20;;;;;;5026777;28;20504;-81
2022/10/17 02:16:49;;;;;;;1.60;1.10;;;16.70;98.20;;;;;;5106218;27;20579;-83
2022/10/17 02:19:35;;;;;;;1.50;1.00;;;16.60;98.20;;;;;;5115934;27;20546;-81
2022/10/17 02:22:16;;;;;;;1.53;0.93;;;16.60;98.20;;;;;;5106970;22;20480;-76
2022/10/17 02:24:49;;;;;;;1.57;1.00;;;16.60;98.20;;;;;;5099243;28;20551;-76
2022/10/17 02:27:25;;;;;;;1.60;1.10;;;16.60;98.20;;;;;;5095973;28;20937;-75
2022/10/17 02:29:58;;;;;;;1.53;1.00;;;16.60;98.20;;;;;;5106701;28;20463;-76
2022/10/17 02:32:32;;;;;;;1.70;1.23;;;16.60;98.20;;;;;;5105704;27;21012;-75
2022/10/17 02:35:02;;;;;;;1.57;1.00;;;16.60;98.20;;;;;;5109326;28;20952;-76
2022/10/17 02:37:31;;;;;;;1.60;1.20;;;16.60;98.20;;;;;;5082779;28;20538;-75
2022/10/17 02:40:00;;;;;;;1.57;1.00;;;16.60;98.20;;;;;;5107580;28;20470;-75
2022/10/17 02:42:28;;;;;;;1.60;1.10;;;16.60;98.20;;;;;;5112926;27;20494;-75
2022/10/17 02:44:59;;;;;;;1.60;1.00;;;16.60;98.20;;;;;;5112449;27;20473;-75
2022/10/17 02:47:29;;;;;;;1.53;0.90;;;16.60;98.20;;;;;;5102554;27;20484;-75
2022/10/17 02:49:58;;;;;;;1.57;1.00;;;16.60;98.20;;;;;;5109856;28;20944;-76
2022/10/17 02:52:33;;;;;;;1.60;1.20;;;16.60;98.20;;;;;;5094574;28;20511;-75
2022/10/17 02:55:06;;;;;;;1.57;1.00;;;16.50;98.20;;;;;;5117624;27;20450;-76
2022/10/17 02:57:37;;;;;;;1.53;0.97;;;16.50;98.20;;;;;;5116925;27;20474;-76
2022/10/17 03:00:08;;;;;;;1.50;0.97;;;16.50;98.20;;;;;;5130758;27;20455;-75
2022/10/17 03:02:44;;;;;;;1.57;1.00;;;16.50;98.20;;;;;;5116610;27;20610;-75
2022/10/17 03:05:12;;;;;;;1.60;1.00;;;16.50;98.20;;;;;;5130547;27;20458;-75
2022/10/17 03:07:41;;;;;;;1.57;1.00;;;16.50;98.20;;;;;;5102514;27;20577;-76
2022/10/17 03:10:08;;;;;;;1.60;1.00;;;16.50;98.20;;;;;;5129328;27;20508;-74
2022/10/17 03:12:35;;;;;;;1.60;1.00;;;16.50;98.20;;;;;;5116321;27;20510;-75
2022/10/17 03:15:02;;;;;;;1.50;0.90;;;16.50;98.20;;;;;;5129935;27;20856;-75
2022/10/17 03:17:29;;;;;;;1.57;1.00;;;16.50;98.20;;;;;;5117215;27;20482;-74
2022/10/17 03:19:55;;;;;;;1.60;1.00;;;16.50;98.20;;;;;;5122540;27;20463;-74
2022/10/17 03:22:22;;;;;;;1.60;0.90;;;16.50;98.20;;;;;;5104231;27;20498;-74
2022/10/17 03:24:51;;;;;;;1.53;1.00;;;16.50;98.20;;;;;;5124771;27;20881;-74
2022/10/17 03:27:18;;;;;;;1.60;1.20;;;16.50;98.20;;;;;;5103436;27;20484;-74
2022/10/17 03:29:45;;;;;;;1.60;1.00;;;16.50;98.20;;;;;;5119117;27;20485;-74
2022/10/17 03:32:12;;;;;;;1.60;1.00;;;16.50;98.20;;;;;;5103971;27;20576;-74
2022/10/17 03:34:38;;;;;;;1.60;1.20;;;16.50;98.20;;;;;;5120441;27;20465;-74
2022/10/17 03:37:05;;;;;;;1.60;1.10;;;16.50;98.20;;;;;;5115437;27;20518;-73
2022/10/17 03:39:32;;;;;;;1.53;1.00;;;16.50;98.20;;;;;;5128173;27;20470;-74
2022/10/17 03:42:01;;;;;;;1.57;1.00;;;16.50;98.20;;;;;;5105165;27;20548;-74
2022/10/17 03:44:27;;;;;;;1.57;1.00;;;16.50;98.20;;;;;;5123047;27;20958;-74
2022/10/17 03:46:54;;;;;;;1.60;1.20;;;16.50;98.20;;;;;;5100698;27;20487;-74
2022/10/17 03:49:21;;;;;;;1.60;1.00;;;16.60;98.20;;;;;;5117656;27;20491;-73
2022/10/17 03:51:48;;;;;;;1.60;1.00;;;16.60;98.20;;;;;;5100332;27;21185;-74
2022/10/17 03:54:15;;;;;;;1.53;0.90;;;16.60;98.20;;;;;;5114980;27;20454;-74
2022/10/17 03:56:43;;;;;;;1.57;1.00;;;16.60;98.20;;;;;;5106756;27;20517;-74
2022/10/17 03:59:13;;;;;;;1.53;0.90;;;16.70;98.20;;;;;;5118985;27;20458;-74
2022/10/17 04:01:40;;;;;;;4.07;3.03;;;16.70;98.20;;;;;;5102184;27;20511;-74
2022/10/17 04:04:07;;;;;;;1.60;1.07;;;16.70;98.20;;;;;;5110330;27;20464;-75
2022/10/17 04:06:34;;;;;;;1.53;1.00;;;16.70;98.20;;;;;;5110694;27;20571;-74
2022/10/17 04:09:02;;;;;;;1.53;1.00;;;16.80;98.20;;;;;;5120205;27;20852;-74
2022/10/17 04:11:29;;;;;;;1.57;1.00;;;16.80;98.20;;;;;;5111951;27;20482;-75
2022/10/17 04:13:58;;;;;;;1.53;0.90;;;16.80;98.20;;;;;;5117517;27;20463;-74
2022/10/17 04:16:26;;;;;;;1.53;1.00;;;16.80;98.20;;;;;;5110576;27;21234;-75
2022/10/17 04:18:55;;;;;;;1.57;1.00;;;16.80;98.20;;;;;;5123338;27;20459;-74
2022/10/17 04:21:23;;;;;;;1.60;1.00;;;16.90;98.20;;;;;;5113147;27;20482;-75
2022/10/17 04:23:53;;;;;;;1.50;0.90;;;16.90;98.20;;;;;;5124874;27;20459;-75
2022/10/17 04:26:20;;;;;;;1.60;1.00;;;16.90;98.20;;;;;;5105589;28;20480;-74
2022/10/17 04:28:47;;;;;;;1.57;1.00;;;16.90;98.20;;;;;;5112570;28;20872;-75
2022/10/17 04:31:15;;;;;;;1.60;1.20;;;16.90;98.20;;;;;;5114225;28;20484;-74
2022/10/17 04:33:43;;;;;;;1.60;1.00;;;17.00;98.20;;;;;;5125512;28;20466;-75
2022/10/17 04:36:12;;;;;;;1.60;0.97;;;17.00;98.20;;;;;;5111337;28;20513;-75
2022/10/17 04:38:39;;;;;;;1.93;1.50;;;17.00;98.20;;;;;;5116049;28;20490;-75
2022/10/17 04:41:09;;;;;;;1.60;1.00;;;17.00;98.20;;;;;;5115106;28;20913;-76
2022/10/17 04:43:38;;;;;;;1.60;1.00;;;17.00;98.20;;;;;;5127304;28;20515;-74
2022/10/17 04:46:07;;;;;;;1.57;0.90;;;16.90;98.20;;;;;;5116071;28;20538;-74
2022/10/17 04:48:35;;;;;;;1.50;0.90;;;16.90;98.20;;;;;;5128139;28;20562;-74
2022/10/17 04:51:05;;;;;;;1.57;0.93;;;16.90;98.20;;;;;;5114631;28;20574;-76
2022/10/17 04:53:33;;;;;;;1.57;1.00;;;16.90;98.20;;;;;;5112084;28;20565;-75
2022/10/17 04:56:01;;;;;;;2.60;2.40;;;16.90;98.20;;;;;;5106105;28;20454;-74
2022/10/17 04:58:29;;;;;;;1.60;1.00;;;16.90;98.20;;;;;;5115581;28;20493;-75
2022/10/17 05:00:56;;;;;;;1.53;1.00;;;16.90;98.20;;;;;;5116728;28;20489;-74
2022/10/17 05:03:24;;;;;;;2.20;1.73;;;17.00;98.20;;;;;;5125289;27;20462;-75
2022/10/17 05:05:50;;;;;;;1.53;1.00;;;17.00;98.20;;;;;;5116593;27;20461;-75
2022/10/17 05:08:19;;;;;;;1.60;1.10;;;17.00;98.20;;;;;;5115702;27;20463;-74
2022/10/17 05:10:47;;;;;;;1.60;1.00;;;17.00;98.20;;;;;;5129125;27;20492;-76
2022/10/17 05:13:14;;;;;;;1.57;1.00;;;17.10;98.20;;;;;;5102910;27;20897;-76
2022/10/17 05:15:45;;;;;;;1.53;1.00;;;17.10;98.20;;;;;;5136517;27;20856;-76
2022/10/17 05:18:12;;;;;;;1.60;1.00;;;17.20;98.20;;;;;;5118056;27;20478;-75
2022/10/17 05:20:39;;;;;;;1.50;1.00;;;17.20;98.20;;;;;;5129549;27;20486;-75
2022/10/17 05:23:06;;;;;;;1.57;1.00;;;17.20;98.20;;;;;;5100405;27;20483;-75
2022/10/17 05:25:35;;;;;;;1.53;1.00;;;17.20;98.20;;;;;;5126490;27;20490;-75
2022/10/17 05:28:02;;;;;;;1.60;1.00;;;17.20;98.20;;;;;;5106204;27;20483;-74
2022/10/17 05:30:29;;;;;;;1.60;1.00;;;17.30;98.20;;;;;;5131212;27;20485;-76
2022/10/17 05:32:56;;;;;;;1.60;1.00;;;17.30;98.20;;;;;;5101847;27;20902;-74
2022/10/17 05:35:23;;;;;;;1.60;1.00;;;17.30;98.20;;;;;;5132777;27;20529;-75
2022/10/17 05:38:02;;;;;;;1.60;1.00;;;17.30;98.20;;;;;;5118118;27;20478;-74
2022/10/17 05:40:29;;;;;;;1.57;0.90;;;17.40;98.20;;;;;;5128854;27;20546;-76
2022/10/17 05:42:58;;;;;;;1.57;0.90;;;17.40;98.20;;;;;;5107594;27;20878;-75
2022/10/17 05:45:28;;;;;;;1.60;1.00;;;17.40;98.20;;;;;;5133104;27;20466;-76
2022/10/17 05:48:31;;;;;;;1.57;1.00;;;17.40;98.20;;;;;;5118182;27;20471;-76
2022/10/17 05:54:05;;;;;;;1.70;1.47;;;17.40;98.20;;;;;;5113296;27;21005;-77
2022/10/17 05:56:41;;;;;;;1.53;1.00;;;17.50;98.20;;;;;;5114920;27;20466;-75
2022/10/17 05:59:11;;;;;;;1.53;0.90;;;17.40;98.20;;;;;;5122477;27;20978;-76
2022/10/17 06:04:33;;;;;;;1.57;1.00;;;17.40;98.20;;;;;;5115090;27;20463;-77
2022/10/17 06:07:21;;;;;;;1.53;1.00;;;17.40;98.20;;;;;;5113626;27;20478;-77
2022/10/17 06:09:56;;;;;;;1.57;1.00;;;17.40;98.20;;;;;;5130453;27;20511;-77
2022/10/17 06:12:27;;;;;;;1.60;1.00;;;17.30;98.20;;;;;;5117040;27;20477;-77
2022/10/17 06:15:08;;;;;;;1.60;1.00;;;17.30;98.20;;;;;;5127285;27;20809;-76
2022/10/17 06:17:35;;;;;;;1.57;1.00;;;17.30;98.20;;;;;;5101914;27;20482;-77
2022/10/17 06:20:03;;;;;;;1.57;0.90;;;17.20;98.20;;;;;;5130111;27;20585;-76
2022/10/17 06:22:59;;;;;;;1.60;1.00;;;17.20;98.20;;;;;;5123158;27;20475;-79
2022/10/17 06:25:35;;;;;;;1.60;1.00;;;17.20;98.20;;;;;;5128333;27;20474;-76
2022/10/17 06:28:28;;;;;;;1.50;1.00;;;17.20;98.20;;;;;;5106287;27;20483;-77
2022/10/17 06:31:40;;;;;;;1.60;1.00;;;17.20;98.20;;;;;;5120016;27;20520;-76
2022/10/17 06:37:16;;;;;;;1.60;0.90;;;17.30;98.20;;;;;;5109883;27;20551;-76
2022/10/17 06:40:23;;;;;;;1.57;0.90;;;17.40;98.20;;;;;;5132483;27;20450;-75
2022/10/17 06:42:56;;;;;;;1.60;0.90;;;17.40;98.20;;;;;;5099573;27;20563;-75
2022/10/17 06:45:31;;;;;;;1.60;1.10;;;17.40;98.20;;;;;;5127449;27;20465;-76
2022/10/17 06:48:09;;;;;;;1.57;1.00;;;17.50;98.20;;;;;;5102437;27;20479;-76
2022/10/17 06:50:49;;;;;;;1.60;1.10;;;17.50;98.20;;;;;;5112687;28;20479;-76
2022/10/17 06:53:23;;;;;;;1.60;0.90;;;17.50;98.20;;;;;;5092294;27;20487;-76
2022/10/17 06:59:09;;;;;;;1.53;1.00;;;17.50;98.20;;;;;;5105598;27;20460;-76
2022/10/17 07:01:40;;;;;;;1.53;0.97;;;17.60;98.20;;;;;;5104748;27;21017;-76
2022/10/17 07:04:14;;;;;;;1.60;1.10;;;17.70;98.20;;;;;;5110458;27;20464;-77
2022/10/17 07:06:44;;;;;;;1.53;1.00;;;17.70;98.20;;;;;;5099203;28;20562;-76
2022/10/17 07:09:48;;;;;;;1.60;1.00;;;17.80;98.20;;;;;;5105474;28;20539;-75
2022/10/17 07:12:32;;;;;;;1.60;1.00;;;17.90;98.20;;;;;;5104841;27;20482;-76
2022/10/17 07:17:50;;;;;;;1.57;0.90;;;18.10;98.20;;;;;;5095968;28;20486;-77
2022/10/17 07:20:27;;;;;;;1.57;0.90;;;18.10;98.20;;;;;;5107747;28;20455;-76
2022/10/17 07:23:41;;;;;;;1.60;1.00;;;18.10;98.20;;;;;;5096624;27;20869;-77
2022/10/17 07:26:30;;;;;;;1.60;1.00;;;18.10;98.20;;;;;;5082850;27;20492;-76
2022/10/17 07:31:53;;;;;;;1.60;1.00;;;18.20;98.20;;;;;;5064790;28;20485;-76
2022/10/17 07:34:37;;;;;;;1.60;1.10;;;18.20;98.20;;;;;;5100743;28;20466;-76
2022/10/17 07:37:08;;;;;;;10.37;3.10;;;18.30;98.20;;;;;;5086712;28;21162;-76
2022/10/17 07:39:43;;;;;;;1.57;1.00;;;18.30;98.20;;;;;;5105168;28;20460;-75
2022/10/17 07:43:03;;;;;;;1.60;1.00;;;18.40;98.20;;;;;;5099635;27;20557;-75
2022/10/17 07:45:44;;;;;;;1.60;1.00;;;18.50;98.20;;;;;;5104969;27;20501;-76
2022/10/17 07:48:25;;;;;;;1.53;1.00;;;18.70;98.20;;;;;;5082070;28;20528;-77
2022/10/17 07:51:20;;;;;;;1.60;1.00;;;18.70;98.20;;;;;;5105511;27;20556;-76
2022/10/17 07:53:49;;;;;;;1.60;0.90;;;18.80;98.20;;;;;;5089218;28;20596;-76
2022/10/17 07:56:29;;;;;;;1.60;1.10;;;18.80;98.20;;;;;;5094057;27;20476;-76
2022/10/17 07:58:59;;;;;;;1.60;1.00;;;18.90;98.20;;;;;;5112268;27;20460;-76
2022/10/17 08:01:27;;;;;;;1.60;1.00;;;19.00;98.20;;;;;;5099248;27;20491;-75
2022/10/17 08:03:54;;;;;;;1.50;0.93;;;19.00;98.20;;;;;;5117180;27;20538;-75
2022/10/17 08:06:22;;;;;;;1.60;0.90;;;19.10;98.20;;;;;;5098432;27;20551;-75
2022/10/17 08:08:50;;;;;;;1.60;0.90;;;19.20;98.20;;;;;;5117250;27;20459;-74
2022/10/17 08:11:18;;;;;;;1.60;0.90;;;19.30;98.20;;;;;;5094062;28;20502;-75
2022/10/17 08:13:45;;;;;;;1.60;0.90;;;19.40;98.20;;;;;;5106712;28;20491;-75
2022/10/17 08:16:13;;;;;;;1.57;0.90;;;19.50;98.20;;;;;;5097977;28;20505;-75
2022/10/17 08:18:42;;;;;;;1.60;0.90;;;19.60;98.20;;;;;;5117548;27;20562;-75
2022/10/17 08:21:10;;;;;;;1.57;0.93;;;19.70;98.20;;;;;;5090485;28;20505;-75
2022/10/17 08:23:37;;;;;;;1.60;1.00;;;19.80;98.20;;;;;;5107389;28;20831;-75
2022/10/17 08:26:09;;;;;;;1.60;1.00;;;19.90;98.20;;;;;;5095365;28;20461;-74
2022/10/17 08:28:37;;;;;;;1.60;0.90;;;20.00;98.20;;;;;;5106425;28;20547;-74
2022/10/17 08:31:06;;;;;;;1.57;0.90;;;20.10;98.20;;;;;;5095410;28;20537;-74
2022/10/17 08:33:33;;;;;;;1.60;0.90;;;20.10;98.20;;;;;;5106512;28;20586;-75
2022/10/17 08:36:01;;;;;;;1.60;1.03;;;20.10;98.20;;;;;;5094145;28;20455;-75
2022/10/17 08:38:29;;;;;;;1.53;0.93;;;20.20;98.20;;;;;;5103783;28;21033;-74
2022/10/17 08:41:00;;;;;;;1.60;0.90;;;20.20;98.20;;;;;;5097871;28;21014;-75
2022/10/17 08:43:45;;;;;;;1.53;0.90;;;20.20;98.20;;;;;;5121612;27;20460;-78
2022/10/17 08:46:13;;;;;;;1.60;1.00;;;20.30;98.20;;;;;;5101006;27;20904;-75
2022/10/17 08:48:43;;;;;;;1.57;0.90;;;20.40;98.20;;;;;;5111729;28;20481;-75
2022/10/17 08:51:14;;;;;;;1.57;0.90;;;20.50;98.20;;;;;;5099866;28;20542;-75
2022/10/17 08:53:48;;;;;;;1.53;0.90;;;20.60;98.20;;;;;;5109707;28;21027;-75
2022/10/17 08:56:19;;;;;;;1.57;0.90;;;20.60;98.20;;;;;;5097612;27;20467;-75
2022/10/17 08:58:48;;;;;;;1.60;1.00;;;20.60;98.20;;;;;;5120645;27;20470;-74
2022/10/17 09:04:55;;;;;;;1.60;1.10;;;20.50;98.20;;;;;;5117707;27;20992;-74
2022/10/17 09:10:16;;;;;;;1.60;0.90;;;20.60;98.20;;;;;;5108803;28;20550;-76
2022/10/17 09:12:54;;;;;;;1.60;0.90;;;20.60;98.20;;;;;;5097935;27;20475;-75
2022/10/17 09:15:40;;;;;;;1.50;0.90;;;20.60;98.20;;;;;;5109103;28;20539;-75
2022/10/17 09:18:13;;;;;;;1.60;0.90;;;20.60;98.20;;;;;;5112781;27;20501;-75
2022/10/17 09:20:45;;;;;;;1.53;0.90;;;20.60;98.20;;;;;;5110934;28;20869;-76
2022/10/17 09:23:17;;;;;;;1.60;0.90;;;20.60;98.20;;;;;;5102327;28;20480;-74
2022/10/17 09:25:50;;;;;;;1.57;0.90;;;20.80;98.20;;;;;;5108897;28;20464;-76
2022/10/17 09:28:21;;;;;;;1.50;0.80;;;20.90;98.20;;;;;;5091406;28;20480;-76
2022/10/17 09:30:56;;;;;;;1.57;0.90;;;21.00;98.20;;;;;;5099065;28;20480;-74
2022/10/17 09:33:29;;;;;;;1.53;0.90;;;21.00;98.20;;;;;;5106849;28;21135;-75
2022/10/17 09:35:58;;;;;;;1.57;0.90;;;21.00;98.20;;;;;;5100349;27;20490;-75
2022/10/17 09:38:31;;;;;;;1.53;0.90;;;21.00;98.20;;;;;;5117182;27;20460;-76
2022/10/17 09:41:01;;;;;;;1.53;0.90;;;21.00;98.20;;;;;;5114051;22;20662;-80
2022/10/17 09:43:28;;;;;;;1.60;1.10;;;21.10;98.20;;;;;;5084535;28;20464;-81
2022/10/17 09:46:05;;;;;;;1.53;0.90;;;21.00;98.20;;;;;;5074345;28;20917;-80
2022/10/17 09:48:37;;;;;;;1.53;0.90;;;21.00;98.20;;;;;;5075435;28;20460;-80
2022/10/17 09:51:07;;;;;;;1.60;1.00;;;21.00;98.20;;;;;;5064137;28;20497;-80
2022/10/17 09:53:38;;;;;;;1.70;1.00;;;20.90;98.20;;;;;;5075291;28;20500;-79
2022/10/17 09:56:11;;;;;;;1.53;1.00;;;20.90;98.20;;;;;;5069703;28;20457;-81
2022/10/17 09:58:43;;;;;;;1.50;0.90;;;20.90;98.20;;;;;;5072563;28;20465;-80
2022/10/17 10:01:21;;;;;;;1.53;0.90;;;20.90;98.20;;;;;;5069468;28;20483;-80
2022/10/17 10:03:49;;;;;;;1.50;0.90;;;20.90;98.20;;;;;;5082758;28;20465;-80
2022/10/17 10:06:18;;;;;;;1.50;0.90;;;20.90;98.20;;;;;;5070861;28;20498;-80
2022/10/17 10:08:52;;;;;;;1.53;0.90;;;20.80;98.20;;;;;;5074321;28;20817;-80
2022/10/17 10:11:23;;;;;;;1.50;0.90;;;20.80;98.20;;;;;;5064030;28;20508;-81
2022/10/17 10:13:51;;;;;;;1.60;1.00;;;20.80;98.20;;;;;;5079542;28;20570;-80
2022/10/17 10:16:24;;;;;;;1.60;1.10;;;20.90;98.20;;;;;;5069999;28;20496;-81
2022/10/17 10:18:52;;;;;;;1.57;0.90;;;20.80;98.20;;;;;;5077889;28;20464;-81
2022/10/17 10:21:22;;;;;;;1.53;0.90;;;20.90;98.20;;;;;;5069311;28;20820;-80
2022/10/17 10:24:12;;;;;;;1.50;0.90;;;20.90;98.20;;;;;;5084125;28;20448;-81
2022/10/17 10:26:42;;;;;;;1.50;0.90;;;20.90;98.20;;;;;;5068157;28;20497;-79
2022/10/17 10:29:27;;;;;;;1.60;1.00;;;20.90;98.20;;;;;;5081900;28;20899;-80
2022/10/17 10:31:58;;;;;;;3.30;1.47;;;20.90;98.20;;;;;;5068268;28;20492;-80
2022/10/17 10:34:28;;;;;;;1.60;1.10;;;21.00;98.20;;;;;;5080766;28;20476;-80
2022/10/17 10:37:00;;;;;;;1.53;0.90;;;21.00;98.20;;;;;;5067016;28;20534;-79
2022/10/17 10:39:40;;;;;;;2.43;1.37;;;21.10;98.20;;;;;;5078579;28;20464;-80
2022/10/17 10:42:18;;;;;;;1.57;0.90;;;21.10;98.20;;;;;;5064980;28;20725;-80
2022/10/17 10:44:47;;;;;;;1.60;1.00;;;21.10;98.20;;;;;;5078407;28;20457;-80
2022/10/17 10:47:25;;;;;;;1.57;0.90;;;21.20;98.20;;;;;;5071582;28;20469;-79
2022/10/17 10:50:06;;;;;;;1.57;0.90;;;21.20;98.20;;;;;;5083416;28;20453;-80
2022/10/17 10:52:41;;;;;;;1.50;0.90;;;21.20;98.20;;;;;;5061758;28;20599;-79
2022/10/17 10:55:21;;;;;;;1.97;1.17;;;21.20;98.20;;;;;;5079237;28;20514;-79
2022/10/17 10:57:51;;;;;;;1.50;0.90;;;21.20;98.20;;;;;;5065632;28;20544;-80
2022/10/17 11:00:24;;;;;;;1.50;0.90;;;21.20;98.20;;;;;;5077064;28;20853;-80
2022/10/17 11:03:37;;;;;;;1.50;0.90;;;21.10;98.20;;;;;;5072090;28;20473;-81
2022/10/17 11:06:14;;;;;;;3.10;1.67;;;21.10;98.20;;;;;;4960822;28;20982;-79
2022/10/17 11:08:47;;;;;;;1.57;0.90;;;21.00;98.20;;;;;;4966464;28;20565;-78
2022/10/17 11:11:22;;;;;;;1.50;0.90;;;21.00;98.20;;;;;;5036837;28;20641;-78
2022/10/17 11:13:56;;;;;;;1.53;0.93;;;20.90;98.20;;;;;;5085219;28;20487;-76
2022/10/17 11:16:31;;;;;;;1.60;1.00;;;20.90;98.20;;;;;;5071173;28;20478;-78
2022/10/17 11:19:06;;;;;;;1.50;0.90;;;20.90;98.20;;;;;;5078361;28;20468;-78
2022/10/17 11:21:43;;;;;;;1.53;0.90;;;21.00;98.20;;;;;;5065747;28;20580;-78
2022/10/17 11:24:19;;;;;;;1.53;0.90;;;21.00;98.20;;;;;;5073795;28;20618;-79
2022/10/17 11:26:53;;;;;;;1.57;0.90;;;21.10;98.20;;;;;;5070742;28;20489;-78
2022/10/17 11:29:22;;;;;;;1.50;0.90;;;21.10;98.20;;;;;;5075229;28;20829;-78
2022/10/17 11:31:52;;;;;;;1.53;0.90;;;21.20;98.20;;;;;;5066047;28;20493;-79
2022/10/17 11:34:25;;;;;;;1.57;0.90;;;21.20;98.20;;;;;;5077898;28;20491;-79
2022/10/17 11:36:58;;;;;;;1.50;0.90;;;21.20;98.20;;;;;;5061033;28;20527;-79
2022/10/17 11:39:33;;;;;;;1.53;0.90;;;21.30;98.20;;;;;;5081114;28;20457;-79
2022/10/17 11:42:06;;;;;;;1.50;0.90;;;21.30;98.20;;;;;;5067494;28;20475;-79
2022/10/17 11:44:37;;;;;;;1.60;1.10;;;21.30;98.20;;;;;;5075156;28;20464;-79
2022/10/17 11:47:13;;;;;;;1.50;0.90;;;21.40;98.20;;;;;;5067341;28;20485;-79
2022/10/17 11:49:45;;;;;;;1.53;0.90;;;21.40;98.20;;;;;;5063398;28;20466;-79
2022/10/17 11:52:28;;;;;;;1.60;1.20;;;21.40;98.20;;;;;;5061473;28;20537;-78
2022/10/17 11:55:19;;;;;;;1.50;0.90;;;21.50;98.20;;;;;;5092116;28;20475;-79
2022/10/17 11:58:13;;;;;;;1.60;0.90;;;21.60;98.20;;;;;;5067796;28;20611;-78
2022/10/17 12:00:53;;;;;;;1.50;0.90;;;21.70;98.20;;;;;;5077247;28;20970;-79
2022/10/17 12:03:32;;;;;;;1.57;0.90;;;21.70;98.20;;;;;;5064453;28;20483;-77
2022/10/17 12:06:08;;;;;;;1.53;0.90;;;21.70;98.20;;;;;;5084903;28;20492;-79
2022/10/17 12:08:44;;;;;;;1.50;0.90;;;21.70;98.20;;;;;;5091802;28;20517;-79
2022/10/17 12:11:28;;;;;;;1.57;0.90;;;21.70;98.20;;;;;;5094735;27;21086;-78
2022/10/17 12:13:56;;;;;;;1.60;0.90;;;21.70;98.20;;;;;;5091252;28;20488;-79
2022/10/17 12:16:45;;;;;;;1.50;0.90;;;21.70;98.20;;;;;;5081002;28;20851;-78
2022/10/17 12:19:27;;;;;;;1.50;0.90;;;21.70;98.20;;;;;;5090871;28;20470;-77
2022/10/17 12:21:57;;;;;;;1.50;0.90;;;21.70;98.20;;;;;;5085055;28;20757;-79
2022/10/17 12:24:40;;;;;;;1.53;0.90;;;21.70;98.20;;;;;;5100119;28;20456;-78
2022/10/17 12:27:38;;;;;;;1.53;0.90;;;21.70;98.20;;;;;;5089515;28;20944;-78
2022/10/17 12:30:15;;;;;;;1.57;0.90;;;21.70;98.20;;;;;;5092803;28;20545;-79
2022/10/17 12:33:04;;;;;;;1.50;0.93;;;21.70;98.20;;;;;;5083079;28;21519;-79
2022/10/17 12:35:33;;;;;;;1.57;0.90;;;21.70;98.20;;;;;;5092512;28;20530;-79
2022/10/17 12:38:19;;;;;;;1.53;0.90;;;21.70;98.20;;;;;;5079780;28;20487;-78
2022/10/17 12:41:08;;;;;;;1.57;0.90;;;21.60;98.20;;;;;;5098481;28;20472;-78
2022/10/17 12:43:56;;;;;;;1.60;1.10;;;21.60;98.20;;;;;;5066901;28;20475;-78
2022/10/17 12:46:56;;;;;;;1.50;0.90;;;21.50;98.20;;;;;;5084808;28;20882;-78
2022/10/17 12:49:40;;;;;;;1.53;0.90;;;21.50;98.20;;;;;;5090767;28;20467;-78
2022/10/17 12:52:25;;;;;;;1.50;0.90;;;21.50;98.20;;;;;;5082788;28;20484;-78
2022/10/17 12:54:56;;;;;;;1.53;1.00;;;21.40;98.20;;;;;;5099977;28;20545;-79
2022/10/17 12:57:31;;;;;;;1.57;0.90;;;21.40;98.20;;;;;;5082619;28;20476;-78
2022/10/17 13:00:00;;;;;;;1.53;0.90;;;21.30;98.20;;;;;;5094643;28;20468;-79
2022/10/17 13:02:30;;;;;;;1.50;0.90;;;21.30;98.20;;;;;;5080322;28;20694;-79
2022/10/17 13:05:06;;;;;;;1.53;0.90;;;21.30;98.20;;;;;;5094850;28;20464;-77
2022/10/17 13:07:35;;;;;;;1.50;0.90;;;21.30;98.20;;;;;;5077568;28;20550;-76
2022/10/17 13:10:04;;;;;;;1.50;0.90;;;21.30;98.20;;;;;;5091614;28;20482;-77
2022/10/17 13:12:37;;;;;;;1.50;0.90;;;21.20;98.20;;;;;;5080017;28;20488;-77
2022/10/17 13:15:07;;;;;;;1.53;0.90;;;21.20;98.20;;;;;;5100484;28;21077;-76
2022/10/17 13:17:35;;;;;;;1.87;1.40;;;21.20;98.20;;;;;;5081759;28;21005;-77
2022/10/17 13:20:02;;;;;;;1.50;0.90;;;21.20;98.20;;;;;;5094608;28;20470;-77
2022/10/17 13:22:31;;;;;;;1.50;0.90;;;21.10;98.20;;;;;;5083901;28;20488;-78
2022/10/17 13:25:14;;;;;;;2.00;1.47;;;21.20;98.20;;;;;;5101731;28;20504;-77
2022/10/17 13:27:45;;;;;;;1.53;1.00;;;21.20;98.20;;;;;;5088010;28;20496;-77
2022/10/17 13:30:25;;;;;;;1.50;0.90;;;21.10;98.20;;;;;;5098225;28;20467;-77
2022/10/17 13:32:52;;;;;;;1.53;0.90;;;21.10;98.20;;;;;;5088401;28;20540;-77
2022/10/17 13:35:28;;;;;;;1.60;1.10;;;21.10;98.20;;;;;;5099871;28;21084;-77
2022/10/17 13:37:56;;;;;;;1.50;0.90;;;21.10;98.20;;;;;;5079160;28;20476;-78
2022/10/17 13:40:25;;;;;;;1.50;0.90;;;21.10;98.20;;;;;;5096041;28;20934;-77
2022/10/17 13:42:57;;;;;;;1.50;0.90;;;21.10;98.20;;;;;;5078205;28;20487;-77
2022/10/17 13:45:30;;;;;;;1.50;0.90;;;21.10;98.20;;;;;;5099083;27;20475;-76
2022/10/17 13:48:00;;;;;;;1.50;0.90;;;21.10;98.20;;;;;;5089726;27;20479;-78
2022/10/17 13:50:32;;;;;;;1.50;0.90;;;21.10;98.20;;;;;;5097429;27;20460;-78
2022/10/17 13:53:20;;;;;;;1.53;0.90;;;21.10;98.20;;;;;;5082992;28;21023;-78
2022/10/17 13:55:56;;;;;;;1.87;1.30;;;21.10;98.20;;;;;;5098277;27;20491;-77
2022/10/17 13:58:26;;;;;;;1.50;0.90;;;21.10;98.20;;;;;;5098305;28;20475;-77